sensor_id;sensor_type;location;lat;lon;timestamp;temperature;humidity
41592;DHT22;28026;48.562;14.440;2023-06-22T00:00:18;19.40;99.90
41592;DHT22;28026;48.562;14.440;2023-06-22T00:02:50;19.50;99.90
41592;DHT22;28026;48.562;14.440;2023-06-22T00:05:21;19.00;99.90
41592;DHT22;28026;48.562;14.440;2023-06-22T00:07:51;19.50;99.90
41592;DHT22;28026;48.562;14.440;2023-06-22T00:10:22;19.50;99.90
41592;DHT22;28026;48.562;14.440;2023-06-22T00:12:53;19.50;99.90
41592;DHT22;28026;48.562;14.440;2023-06-22T00:15:24;19.60;99.90
41592;DHT22;28026;48.562;14.440;2023-06-22T00:17:55;19.30;99.90
41592;DHT22;28026;48.562;14.440;2023-06-22T00:20:27;19.30;99.90
41592;DHT22;28026;48.562;14.440;2023-06-22T00:22:59;19.30;99.90
41592;DHT22;28026;48.562;14.440;2023-06-22T00:25:30;19.30;99.90
41592;DHT22;28026;48.562;14.440;2023-06-22T00:28:01;19.40;99.90
41592;DHT22;28026;48.562;14.440;2023-06-22T00:30:34;19.50;99.90
41592;DHT22;28026;48.562;14.440;2023-06-22T00:33:05;19.50;99.90
41592;DHT22;28026;48.562;14.440;2023-06-22T00:35:37;19.40;99.90
41592;DHT22;28026;48.562;14.440;2023-06-22T00:38:11;19.40;99.90
41592;DHT22;28026;48.562;14.440;2023-06-22T00:40:42;19.40;99.90
41592;DHT22;28026;48.562;14.440;2023-06-22T00:43:13;19.30;99.90
41592;DHT22;28026;48.562;14.440;2023-06-22T00:45:44;19.30;99.90
41592;DHT22;28026;48.562;14.440;2023-06-22T00:48:15;19.30;99.90
41592;DHT22;28026;48.562;14.440;2023-06-22T00:50:47;19.40;99.90
41592;DHT22;28026;48.562;14.440;2023-06-22T00:53:19;19.30;99.90
41592;DHT22;28026;48.562;14.440;2023-06-22T00:55:50;19.20;99.90
41592;DHT22;28026;48.562;14.440;2023-06-22T00:58:24;19.10;99.90
41592;DHT22;28026;48.562;14.440;2023-06-22T01:00:55;19.10;99.90
41592;DHT22;28026;48.562;14.440;2023-06-22T01:03:27;19.00;99.90
41592;DHT22;28026;48.562;14.440;2023-06-22T01:05:59;19.10;99.90
41592;DHT22;28026;48.562;14.440;2023-06-22T01:08:51;19.10;99.90
41592;DHT22;28026;48.562;14.440;2023-06-22T01:11:37;19.00;99.90
41592;DHT22;28026;48.562;14.440;2023-06-22T01:14:18;19.00;99.90
41592;DHT22;28026;48.562;14.440;2023-06-22T01:16:58;18.70;99.90
41592;DHT22;28026;48.562;14.440;2023-06-22T01:19:38;18.70;99.90
41592;DHT22;28026;48.562;14.440;2023-06-22T01:22:17;18.50;99.90
41592;DHT22;28026;48.562;14.440;2023-06-22T01:25:00;18.50;99.90
41592;DHT22;28026;48.562;14.440;2023-06-22T01:30:56;18.60;99.90
41592;DHT22;28026;48.562;14.440;2023-06-22T01:33:36;18.60;99.90
41592;DHT22;28026;48.562;14.440;2023-06-22T01:36:11;18.60;99.90
41592;DHT22;28026;48.562;14.440;2023-06-22T01:38:44;18.60;99.90
41592;DHT22;28026;48.562;14.440;2023-06-22T01:41:18;18.60;99.90
41592;DHT22;28026;48.562;14.440;2023-06-22T01:43:51;18.60;99.90
41592;DHT22;28026;48.562;14.440;2023-06-22T01:46:24;18.40;99.90
41592;DHT22;28026;48.562;14.440;2023-06-22T01:48:56;18.30;99.90
41592;DHT22;28026;48.562;14.440;2023-06-22T01:51:27;18.20;99.90
41592;DHT22;28026;48.562;14.440;2023-06-22T01:53:58;18.30;99.90
41592;DHT22;28026;48.562;14.440;2023-06-22T01:56:29;18.30;99.90
41592;DHT22;28026;48.562;14.440;2023-06-22T02:02:06;18.40;99.90
41592;DHT22;28026;48.562;14.440;2023-06-22T02:04:48;18.40;99.90
41592;DHT22;28026;48.562;14.440;2023-06-22T02:07:49;18.40;99.90
41592;DHT22;28026;48.562;14.440;2023-06-22T02:10:48;18.30;99.90
41592;DHT22;28026;48.562;14.440;2023-06-22T02:13:23;18.20;99.90
41592;DHT22;28026;48.562;14.440;2023-06-22T02:15:55;18.10;99.90
41592;DHT22;28026;48.562;14.440;2023-06-22T02:18:26;18.00;99.90
41592;DHT22;28026;48.562;14.440;2023-06-22T02:20:58;18.00;99.90
41592;DHT22;28026;48.562;14.440;2023-06-22T02:23:29;18.10;99.90
41592;DHT22;28026;48.562;14.440;2023-06-22T02:26:01;18.00;99.90
41592;DHT22;28026;48.562;14.440;2023-06-22T02:28:33;18.00;99.90
41592;DHT22;28026;48.562;14.440;2023-06-22T02:31:04;18.10;99.90
41592;DHT22;28026;48.562;14.440;2023-06-22T02:33:35;18.00;99.90
41592;DHT22;28026;48.562;14.440;2023-06-22T02:36:06;18.00;99.90
41592;DHT22;28026;48.562;14.440;2023-06-22T02:38:43;18.10;99.90
41592;DHT22;28026;48.562;14.440;2023-06-22T02:41:18;18.10;99.90
41592;DHT22;28026;48.562;14.440;2023-06-22T02:43:49;18.20;99.90
41592;DHT22;28026;48.562;14.440;2023-06-22T02:46:20;18.30;99.90
41592;DHT22;28026;48.562;14.440;2023-06-22T02:48:51;18.20;99.90
41592;DHT22;28026;48.562;14.440;2023-06-22T02:51:22;17.40;99.90
41592;DHT22;28026;48.562;14.440;2023-06-22T02:53:53;17.30;99.90
41592;DHT22;28026;48.562;14.440;2023-06-22T02:56:28;17.20;99.90
41592;DHT22;28026;48.562;14.440;2023-06-22T02:59:00;17.30;99.90
41592;DHT22;28026;48.562;14.440;2023-06-22T03:01:31;17.50;99.90
41592;DHT22;28026;48.562;14.440;2023-06-22T03:04:09;17.60;99.90
41592;DHT22;28026;48.562;14.440;2023-06-22T03:06:40;17.70;99.90
41592;DHT22;28026;48.562;14.440;2023-06-22T03:09:11;17.80;99.90
41592;DHT22;28026;48.562;14.440;2023-06-22T03:11:42;17.80;99.90
41592;DHT22;28026;48.562;14.440;2023-06-22T03:14:13;17.90;99.90
41592;DHT22;28026;48.562;14.440;2023-06-22T03:16:44;17.80;99.90
41592;DHT22;28026;48.562;14.440;2023-06-22T03:19:15;17.80;99.90
41592;DHT22;28026;48.562;14.440;2023-06-22T03:21:47;17.60;99.90
41592;DHT22;28026;48.562;14.440;2023-06-22T03:24:18;17.00;99.90
41592;DHT22;28026;48.562;14.440;2023-06-22T03:26:48;16.90;99.90
41592;DHT22;28026;48.562;14.440;2023-06-22T03:29:19;17.10;99.90
41592;DHT22;28026;48.562;14.440;2023-06-22T03:31:50;17.10;99.90
41592;DHT22;28026;48.562;14.440;2023-06-22T03:34:21;17.10;99.90
41592;DHT22;28026;48.562;14.440;2023-06-22T03:36:52;17.00;99.90
41592;DHT22;28026;48.562;14.440;2023-06-22T03:39:22;17.20;99.90
41592;DHT22;28026;48.562;14.440;2023-06-22T03:41:53;17.20;99.90
41592;DHT22;28026;48.562;14.440;2023-06-22T03:44:24;16.80;99.90
41592;DHT22;28026;48.562;14.440;2023-06-22T03:46:55;16.90;99.90
41592;DHT22;28026;48.562;14.440;2023-06-22T03:49:26;17.00;99.90
41592;DHT22;28026;48.562;14.440;2023-06-22T03:51:57;17.20;99.90
41592;DHT22;28026;48.562;14.440;2023-06-22T03:54:28;17.10;99.90
41592;DHT22;28026;48.562;14.440;2023-06-22T03:57:00;17.20;99.90
41592;DHT22;28026;48.562;14.440;2023-06-22T03:59:30;17.10;99.90
41592;DHT22;28026;48.562;14.440;2023-06-22T04:02:02;17.20;99.90
41592;DHT22;28026;48.562;14.440;2023-06-22T04:04:33;17.30;99.90
41592;DHT22;28026;48.562;14.440;2023-06-22T04:07:05;17.30;99.90
41592;DHT22;28026;48.562;14.440;2023-06-22T04:09:36;17.60;99.90
41592;DHT22;28026;48.562;14.440;2023-06-22T04:12:07;17.80;99.90
41592;DHT22;28026;48.562;14.440;2023-06-22T04:14:38;17.90;99.90
41592;DHT22;28026;48.562;14.440;2023-06-22T04:17:09;18.10;99.90
41592;DHT22;28026;48.562;14.440;2023-06-22T04:19:40;18.20;99.90
41592;DHT22;28026;48.562;14.440;2023-06-22T04:22:11;18.10;99.90
41592;DHT22;28026;48.562;14.440;2023-06-22T04:24:42;18.00;99.90
41592;DHT22;28026;48.562;14.440;2023-06-22T04:27:13;18.00;99.90
41592;DHT22;28026;48.562;14.440;2023-06-22T04:29:43;18.00;99.90
41592;DHT22;28026;48.562;14.440;2023-06-22T04:32:19;18.00;99.90
41592;DHT22;28026;48.562;14.440;2023-06-22T04:34:49;18.10;99.90
41592;DHT22;28026;48.562;14.440;2023-06-22T04:37:22;18.00;99.90
41592;DHT22;28026;48.562;14.440;2023-06-22T04:39:53;17.90;99.90
41592;DHT22;28026;48.562;14.440;2023-06-22T04:42:27;17.90;99.90
41592;DHT22;28026;48.562;14.440;2023-06-22T04:44:58;18.00;99.90
41592;DHT22;28026;48.562;14.440;2023-06-22T04:47:29;18.20;99.90
41592;DHT22;28026;48.562;14.440;2023-06-22T04:50:00;18.30;99.90
41592;DHT22;28026;48.562;14.440;2023-06-22T04:52:35;18.50;99.90
41592;DHT22;28026;48.562;14.440;2023-06-22T04:55:07;18.50;99.90
41592;DHT22;28026;48.562;14.440;2023-06-22T04:57:39;18.60;99.90
41592;DHT22;28026;48.562;14.440;2023-06-22T05:00:10;18.80;99.90
41592;DHT22;28026;48.562;14.440;2023-06-22T05:02:44;19.10;99.90
41592;DHT22;28026;48.562;14.440;2023-06-22T05:05:21;19.20;99.90
41592;DHT22;28026;48.562;14.440;2023-06-22T05:07:51;19.40;99.90
41592;DHT22;28026;48.562;14.440;2023-06-22T05:10:30;19.40;99.90
41592;DHT22;28026;48.562;14.440;2023-06-22T05:13:00;19.70;99.90
41592;DHT22;28026;48.562;14.440;2023-06-22T05:15:31;19.80;99.90
41592;DHT22;28026;48.562;14.440;2023-06-22T05:18:07;19.90;99.90
41592;DHT22;28026;48.562;14.440;2023-06-22T05:20:37;20.10;99.90
41592;DHT22;28026;48.562;14.440;2023-06-22T05:23:08;20.00;99.90
41592;DHT22;28026;48.562;14.440;2023-06-22T05:25:39;19.90;99.90
41592;DHT22;28026;48.562;14.440;2023-06-22T05:28:10;20.10;99.90
41592;DHT22;28026;48.562;14.440;2023-06-22T05:30:42;20.20;99.90
41592;DHT22;28026;48.562;14.440;2023-06-22T05:33:12;19.90;99.90
41592;DHT22;28026;48.562;14.440;2023-06-22T05:35:43;19.60;99.90
41592;DHT22;28026;48.562;14.440;2023-06-22T05:38:14;20.10;99.90
41592;DHT22;28026;48.562;14.440;2023-06-22T05:40:45;20.40;99.90
41592;DHT22;28026;48.562;14.440;2023-06-22T05:43:15;20.60;99.90
41592;DHT22;28026;48.562;14.440;2023-06-22T05:45:46;20.90;99.90
41592;DHT22;28026;48.562;14.440;2023-06-22T05:48:17;21.20;99.90
41592;DHT22;28026;48.562;14.440;2023-06-22T05:50:48;21.40;99.90
41592;DHT22;28026;48.562;14.440;2023-06-22T05:53:19;21.60;99.90
41592;DHT22;28026;48.562;14.440;2023-06-22T05:55:50;21.90;99.90
41592;DHT22;28026;48.562;14.440;2023-06-22T05:58:21;22.10;99.90
41592;DHT22;28026;48.562;14.440;2023-06-22T06:00:52;22.10;99.90
41592;DHT22;28026;48.562;14.440;2023-06-22T06:03:22;22.40;99.90
41592;DHT22;28026;48.562;14.440;2023-06-22T06:05:53;22.60;99.90
41592;DHT22;28026;48.562;14.440;2023-06-22T06:08:24;22.80;99.90
41592;DHT22;28026;48.562;14.440;2023-06-22T06:10:55;23.10;99.90
41592;DHT22;28026;48.562;14.440;2023-06-22T06:13:27;23.10;99.90
41592;DHT22;28026;48.562;14.440;2023-06-22T06:15:58;23.20;99.90
41592;DHT22;28026;48.562;14.440;2023-06-22T06:18:29;23.00;99.90
41592;DHT22;28026;48.562;14.440;2023-06-22T06:21:00;23.30;99.90
41592;DHT22;28026;48.562;14.440;2023-06-22T06:23:31;23.30;99.90
41592;DHT22;28026;48.562;14.440;2023-06-22T06:26:01;23.50;99.90
41592;DHT22;28026;48.562;14.440;2023-06-22T06:28:32;23.80;99.90
41592;DHT22;28026;48.562;14.440;2023-06-22T06:31:04;24.00;99.90
41592;DHT22;28026;48.562;14.440;2023-06-22T06:33:39;24.30;99.90
41592;DHT22;28026;48.562;14.440;2023-06-22T06:36:10;24.40;99.90
41592;DHT22;28026;48.562;14.440;2023-06-22T06:38:40;24.40;99.90
41592;DHT22;28026;48.562;14.440;2023-06-22T06:41:11;24.40;99.90
41592;DHT22;28026;48.562;14.440;2023-06-22T06:43:42;24.60;99.90
41592;DHT22;28026;48.562;14.440;2023-06-22T06:46:13;24.60;99.90
41592;DHT22;28026;48.562;14.440;2023-06-22T06:48:44;24.70;99.90
41592;DHT22;28026;48.562;14.440;2023-06-22T06:51:15;25.00;99.90
41592;DHT22;28026;48.562;14.440;2023-06-22T06:53:45;25.20;99.90
41592;DHT22;28026;48.562;14.440;2023-06-22T06:56:16;25.40;99.90
41592;DHT22;28026;48.562;14.440;2023-06-22T06:58:49;25.50;99.90
41592;DHT22;28026;48.562;14.440;2023-06-22T07:01:21;25.50;99.90
41592;DHT22;28026;48.562;14.440;2023-06-22T07:03:52;25.60;99.90
41592;DHT22;28026;48.562;14.440;2023-06-22T07:06:23;26.00;99.90
41592;DHT22;28026;48.562;14.440;2023-06-22T07:08:59;26.10;99.90
41592;DHT22;28026;48.562;14.440;2023-06-22T07:11:31;26.20;99.90
41592;DHT22;28026;48.562;14.440;2023-06-22T07:14:01;25.80;99.90
41592;DHT22;28026;48.562;14.440;2023-06-22T07:16:32;25.70;99.90
41592;DHT22;28026;48.562;14.440;2023-06-22T07:19:03;25.70;99.90
41592;DHT22;28026;48.562;14.440;2023-06-22T07:21:34;25.70;99.90
41592;DHT22;28026;48.562;14.440;2023-06-22T07:24:04;25.90;99.90
41592;DHT22;28026;48.562;14.440;2023-06-22T07:26:37;26.10;99.90
41592;DHT22;28026;48.562;14.440;2023-06-22T07:29:07;26.20;99.90
41592;DHT22;28026;48.562;14.440;2023-06-22T07:31:38;26.50;99.90
41592;DHT22;28026;48.562;14.440;2023-06-22T07:34:11;26.70;99.90
41592;DHT22;28026;48.562;14.440;2023-06-22T07:36:42;26.80;99.90
41592;DHT22;28026;48.562;14.440;2023-06-22T07:39:14;26.70;99.90
41592;DHT22;28026;48.562;14.440;2023-06-22T07:41:45;26.90;99.90
41592;DHT22;28026;48.562;14.440;2023-06-22T07:44:15;27.20;99.90
41592;DHT22;28026;48.562;14.440;2023-06-22T07:46:46;27.30;99.90
41592;DHT22;28026;48.562;14.440;2023-06-22T07:49:17;27.40;99.90
41592;DHT22;28026;48.562;14.440;2023-06-22T07:51:48;27.50;99.90
41592;DHT22;28026;48.562;14.440;2023-06-22T07:54:19;27.70;99.90
41592;DHT22;28026;48.562;14.440;2023-06-22T07:56:49;27.90;99.90
41592;DHT22;28026;48.562;14.440;2023-06-22T07:59:20;28.00;99.90
41592;DHT22;28026;48.562;14.440;2023-06-22T08:01:51;27.90;99.90
41592;DHT22;28026;48.562;14.440;2023-06-22T08:04:22;27.90;99.90
41592;DHT22;28026;48.562;14.440;2023-06-22T08:06:52;28.30;99.90
41592;DHT22;28026;48.562;14.440;2023-06-22T08:09:24;28.60;99.90
41592;DHT22;28026;48.562;14.440;2023-06-22T08:11:55;28.90;99.90
41592;DHT22;28026;48.562;14.440;2023-06-22T08:14:26;29.00;99.90
41592;DHT22;28026;48.562;14.440;2023-06-22T08:17:00;29.10;99.90
41592;DHT22;28026;48.562;14.440;2023-06-22T08:19:31;29.30;99.90
41592;DHT22;28026;48.562;14.440;2023-06-22T08:22:02;28.50;99.90
41592;DHT22;28026;48.562;14.440;2023-06-22T08:24:33;29.90;99.90
41592;DHT22;28026;48.562;14.440;2023-06-22T08:27:05;30.20;99.90
41592;DHT22;28026;48.562;14.440;2023-06-22T08:29:40;29.70;99.90
41592;DHT22;28026;48.562;14.440;2023-06-22T08:32:15;29.90;99.90
41592;DHT22;28026;48.562;14.440;2023-06-22T08:34:46;30.30;99.90
41592;DHT22;28026;48.562;14.440;2023-06-22T08:37:17;30.80;99.90
41592;DHT22;28026;48.562;14.440;2023-06-22T08:39:47;30.50;99.90
41592;DHT22;28026;48.562;14.440;2023-06-22T08:42:18;30.10;99.90
41592;DHT22;28026;48.562;14.440;2023-06-22T08:44:49;30.10;99.90
41592;DHT22;28026;48.562;14.440;2023-06-22T08:47:20;30.20;99.90
41592;DHT22;28026;48.562;14.440;2023-06-22T08:49:51;30.40;99.90
41592;DHT22;28026;48.562;14.440;2023-06-22T08:52:22;30.30;99.90
41592;DHT22;28026;48.562;14.440;2023-06-22T08:54:54;30.50;99.90
41592;DHT22;28026;48.562;14.440;2023-06-22T08:57:24;30.50;99.90
41592;DHT22;28026;48.562;14.440;2023-06-22T08:59:55;30.50;99.90
41592;DHT22;28026;48.562;14.440;2023-06-22T09:02:28;30.20;99.90
41592;DHT22;28026;48.562;14.440;2023-06-22T09:05:02;30.30;99.90
41592;DHT22;28026;48.562;14.440;2023-06-22T09:07:34;30.70;99.90
41592;DHT22;28026;48.562;14.440;2023-06-22T09:10:05;30.90;99.90
41592;DHT22;28026;48.562;14.440;2023-06-22T09:12:37;31.10;99.90
41592;DHT22;28026;48.562;14.440;2023-06-22T09:15:08;31.40;99.90
41592;DHT22;28026;48.562;14.440;2023-06-22T09:17:40;31.50;99.90
41592;DHT22;28026;48.562;14.440;2023-06-22T09:20:11;31.70;99.90
41592;DHT22;28026;48.562;14.440;2023-06-22T09:22:43;31.60;99.90
41592;DHT22;28026;48.562;14.440;2023-06-22T09:25:14;31.90;99.90
41592;DHT22;28026;48.562;14.440;2023-06-22T09:27:44;31.70;99.90
41592;DHT22;28026;48.562;14.440;2023-06-22T09:30:15;31.80;99.90
41592;DHT22;28026;48.562;14.440;2023-06-22T09:32:46;32.00;99.90
41592;DHT22;28026;48.562;14.440;2023-06-22T09:35:17;32.10;99.90
41592;DHT22;28026;48.562;14.440;2023-06-22T09:37:48;32.40;99.90
41592;DHT22;28026;48.562;14.440;2023-06-22T09:40:18;32.60;99.90
41592;DHT22;28026;48.562;14.440;2023-06-22T09:42:50;32.90;99.90
41592;DHT22;28026;48.562;14.440;2023-06-22T09:45:21;32.60;99.90
41592;DHT22;28026;48.562;14.440;2023-06-22T09:47:51;32.70;99.90
41592;DHT22;28026;48.562;14.440;2023-06-22T09:50:22;32.90;99.90
41592;DHT22;28026;48.562;14.440;2023-06-22T09:52:53;33.40;99.90
41592;DHT22;28026;48.562;14.440;2023-06-22T09:55:25;33.80;99.90
41592;DHT22;28026;48.562;14.440;2023-06-22T09:57:55;33.70;99.90
41592;DHT22;28026;48.562;14.440;2023-06-22T10:00:26;33.80;99.90
41592;DHT22;28026;48.562;14.440;2023-06-22T10:02:57;33.90;99.90
41592;DHT22;28026;48.562;14.440;2023-06-22T10:05:28;33.90;99.90
41592;DHT22;28026;48.562;14.440;2023-06-22T10:07:59;34.20;99.90
41592;DHT22;28026;48.562;14.440;2023-06-22T10:10:30;34.40;99.90
41592;DHT22;28026;48.562;14.440;2023-06-22T10:13:10;34.30;99.90
41592;DHT22;28026;48.562;14.440;2023-06-22T10:15:41;33.00;99.90
41592;DHT22;28026;48.562;14.440;2023-06-22T10:18:13;32.20;99.90
41592;DHT22;28026;48.562;14.440;2023-06-22T10:20:44;32.20;99.90
41592;DHT22;28026;48.562;14.440;2023-06-22T10:23:19;32.70;99.90
41592;DHT22;28026;48.562;14.440;2023-06-22T10:25:51;32.90;99.90
41592;DHT22;28026;48.562;14.440;2023-06-22T10:28:21;32.80;99.90
41592;DHT22;28026;48.562;14.440;2023-06-22T10:30:52;32.70;99.90
41592;DHT22;28026;48.562;14.440;2023-06-22T10:33:23;32.00;99.90
41592;DHT22;28026;48.562;14.440;2023-06-22T10:35:54;32.20;99.90
41592;DHT22;28026;48.562;14.440;2023-06-22T10:38:25;32.80;99.90
41592;DHT22;28026;48.562;14.440;2023-06-22T10:40:56;33.50;99.90
41592;DHT22;28026;48.562;14.440;2023-06-22T10:43:27;33.90;99.90
41592;DHT22;28026;48.562;14.440;2023-06-22T10:45:57;33.20;99.90
41592;DHT22;28026;48.562;14.440;2023-06-22T10:48:28;32.60;99.90
41592;DHT22;28026;48.562;14.440;2023-06-22T10:50:59;32.30;99.90
41592;DHT22;28026;48.562;14.440;2023-06-22T10:53:30;33.10;99.90
41592;DHT22;28026;48.562;14.440;2023-06-22T10:56:01;33.70;99.90
41592;DHT22;28026;48.562;14.440;2023-06-22T10:58:31;34.10;99.90
41592;DHT22;28026;48.562;14.440;2023-06-22T11:01:02;33.20;99.90
41592;DHT22;28026;48.562;14.440;2023-06-22T11:03:33;32.90;99.90
41592;DHT22;28026;48.562;14.440;2023-06-22T11:06:04;33.30;99.90
41592;DHT22;28026;48.562;14.440;2023-06-22T11:08:35;33.70;99.90
41592;DHT22;28026;48.562;14.440;2023-06-22T11:11:05;34.00;99.90
41592;DHT22;28026;48.562;14.440;2023-06-22T11:13:36;33.10;99.90
41592;DHT22;28026;48.562;14.440;2023-06-22T11:16:07;33.20;99.90
41592;DHT22;28026;48.562;14.440;2023-06-22T11:18:38;33.70;99.90
41592;DHT22;28026;48.562;14.440;2023-06-22T11:21:08;34.10;99.90
41592;DHT22;28026;48.562;14.440;2023-06-22T11:23:39;32.50;99.90
41592;DHT22;28026;48.562;14.440;2023-06-22T11:26:10;32.80;99.90
41592;DHT22;28026;48.562;14.440;2023-06-22T11:28:41;33.50;99.90
41592;DHT22;28026;48.562;14.440;2023-06-22T11:31:11;34.60;99.90
41592;DHT22;28026;48.562;14.440;2023-06-22T11:33:42;35.20;99.90
41592;DHT22;28026;48.562;14.440;2023-06-22T11:36:15;34.10;99.80
41592;DHT22;28026;48.562;14.440;2023-06-22T11:38:46;34.40;99.90
41592;DHT22;28026;48.562;14.440;2023-06-22T11:41:17;34.20;98.60
41592;DHT22;28026;48.562;14.440;2023-06-22T11:43:48;34.20;99.60
41592;DHT22;28026;48.562;14.440;2023-06-22T11:46:21;33.90;99.40
41592;DHT22;28026;48.562;14.440;2023-06-22T11:48:52;34.30;99.50
41592;DHT22;28026;48.562;14.440;2023-06-22T11:51:23;34.30;99.90
41592;DHT22;28026;48.562;14.440;2023-06-22T11:53:53;34.60;99.90
41592;DHT22;28026;48.562;14.440;2023-06-22T11:56:24;34.70;99.80
41592;DHT22;28026;48.562;14.440;2023-06-22T11:58:55;33.90;99.60
41592;DHT22;28026;48.562;14.440;2023-06-22T12:01:26;33.00;99.90
41592;DHT22;28026;48.562;14.440;2023-06-22T12:03:57;32.70;99.80
41592;DHT22;28026;48.562;14.440;2023-06-22T12:06:28;33.10;99.00
41592;DHT22;28026;48.562;14.440;2023-06-22T12:08:59;33.40;99.20
41592;DHT22;28026;48.562;14.440;2023-06-22T12:11:30;33.70;99.20
41592;DHT22;28026;48.562;14.440;2023-06-22T12:14:01;33.80;98.90
41592;DHT22;28026;48.562;14.440;2023-06-22T12:16:32;33.60;99.60
41592;DHT22;28026;48.562;14.440;2023-06-22T12:19:03;33.90;99.40
41592;DHT22;28026;48.562;14.440;2023-06-22T12:21:34;33.80;98.70
41592;DHT22;28026;48.562;14.440;2023-06-22T12:24:05;33.60;99.30
41592;DHT22;28026;48.562;14.440;2023-06-22T12:26:35;34.00;99.90
41592;DHT22;28026;48.562;14.440;2023-06-22T12:29:06;35.40;99.30
41592;DHT22;28026;48.562;14.440;2023-06-22T12:31:37;35.20;97.90
41592;DHT22;28026;48.562;14.440;2023-06-22T12:34:09;35.30;98.60
41592;DHT22;28026;48.562;14.440;2023-06-22T12:36:40;34.90;97.70
41592;DHT22;28026;48.562;14.440;2023-06-22T12:39:11;34.00;97.60
41592;DHT22;28026;48.562;14.440;2023-06-22T12:41:42;34.00;97.80
41592;DHT22;28026;48.562;14.440;2023-06-22T12:44:12;34.20;98.40
41592;DHT22;28026;48.562;14.440;2023-06-22T12:46:43;33.70;97.80
41592;DHT22;28026;48.562;14.440;2023-06-22T12:49:14;33.50;98.00
41592;DHT22;28026;48.562;14.440;2023-06-22T12:51:45;33.70;98.20
41592;DHT22;28026;48.562;14.440;2023-06-22T12:54:16;34.00;97.60
41592;DHT22;28026;48.562;14.440;2023-06-22T12:56:47;33.30;98.10
41592;DHT22;28026;48.562;14.440;2023-06-22T12:59:18;34.40;98.10
41592;DHT22;28026;48.562;14.440;2023-06-22T13:01:49;35.30;97.20
41592;DHT22;28026;48.562;14.440;2023-06-22T13:04:20;34.10;97.40
41592;DHT22;28026;48.562;14.440;2023-06-22T13:06:51;33.90;96.30
41592;DHT22;28026;48.562;14.440;2023-06-22T13:09:22;34.40;96.90
41592;DHT22;28026;48.562;14.440;2023-06-22T13:11:53;35.00;96.50
41592;DHT22;28026;48.562;14.440;2023-06-22T13:14:24;34.90;97.00
41592;DHT22;28026;48.562;14.440;2023-06-22T13:16:55;34.70;96.70
41592;DHT22;28026;48.562;14.440;2023-06-22T13:19:25;35.10;96.80
41592;DHT22;28026;48.562;14.440;2023-06-22T13:21:59;36.00;96.10
41592;DHT22;28026;48.562;14.440;2023-06-22T13:24:30;36.40;95.80
41592;DHT22;28026;48.562;14.440;2023-06-22T13:27:01;35.90;95.90
41592;DHT22;28026;48.562;14.440;2023-06-22T13:29:32;36.40;95.20
41592;DHT22;28026;48.562;14.440;2023-06-22T13:32:03;36.80;94.70
41592;DHT22;28026;48.562;14.440;2023-06-22T13:34:34;36.30;95.00
41592;DHT22;28026;48.562;14.440;2023-06-22T13:37:05;35.80;94.80
41592;DHT22;28026;48.562;14.440;2023-06-22T13:39:36;35.40;94.90
41592;DHT22;28026;48.562;14.440;2023-06-22T13:42:07;35.90;95.00
41592;DHT22;28026;48.562;14.440;2023-06-22T13:44:38;35.70;94.70
41592;DHT22;28026;48.562;14.440;2023-06-22T13:47:09;36.20;93.80
41592;DHT22;28026;48.562;14.440;2023-06-22T13:49:40;36.40;93.80
41592;DHT22;28026;48.562;14.440;2023-06-22T13:52:10;37.20;92.90
41592;DHT22;28026;48.562;14.440;2023-06-22T13:54:43;36.50;93.00
41592;DHT22;28026;48.562;14.440;2023-06-22T13:57:13;34.90;93.60
41592;DHT22;28026;48.562;14.440;2023-06-22T13:59:44;34.70;94.60
41592;DHT22;28026;48.562;14.440;2023-06-22T14:02:15;34.90;94.30
41592;DHT22;28026;48.562;14.440;2023-06-22T14:04:46;34.50;94.40
41592;DHT22;28026;48.562;14.440;2023-06-22T14:07:17;34.90;94.30
41592;DHT22;28026;48.562;14.440;2023-06-22T14:09:50;34.80;93.90
41592;DHT22;28026;48.562;14.440;2023-06-22T14:12:21;34.60;94.30
41592;DHT22;28026;48.562;14.440;2023-06-22T14:14:51;34.20;94.80
41592;DHT22;28026;48.562;14.440;2023-06-22T14:17:22;34.60;94.90
41592;DHT22;28026;48.562;14.440;2023-06-22T14:19:55;34.80;94.90
41592;DHT22;28026;48.562;14.440;2023-06-22T14:22:26;35.30;94.10
41592;DHT22;28026;48.562;14.440;2023-06-22T14:24:59;35.30;94.20
41592;DHT22;28026;48.562;14.440;2023-06-22T14:27:30;36.10;93.20
41592;DHT22;28026;48.562;14.440;2023-06-22T14:30:01;36.20;92.80
41592;DHT22;28026;48.562;14.440;2023-06-22T14:32:32;36.60;92.70
41592;DHT22;28026;48.562;14.440;2023-06-22T14:35:03;35.40;94.20
41592;DHT22;28026;48.562;14.440;2023-06-22T14:37:34;34.30;93.80
41592;DHT22;28026;48.562;14.440;2023-06-22T14:40:05;34.10;94.10
41592;DHT22;28026;48.562;14.440;2023-06-22T14:42:36;34.10;95.50
41592;DHT22;28026;48.562;14.440;2023-06-22T14:45:07;34.50;94.20
41592;DHT22;28026;48.562;14.440;2023-06-22T14:47:38;34.50;94.00
41592;DHT22;28026;48.562;14.440;2023-06-22T14:50:10;33.90;94.30
41592;DHT22;28026;48.562;14.440;2023-06-22T14:52:40;34.50;94.10
41592;DHT22;28026;48.562;14.440;2023-06-22T14:55:11;35.00;94.00
41592;DHT22;28026;48.562;14.440;2023-06-22T14:57:42;35.40;93.60
41592;DHT22;28026;48.562;14.440;2023-06-22T15:00:13;34.60;94.30
41592;DHT22;28026;48.562;14.440;2023-06-22T15:02:44;34.20;94.60
41592;DHT22;28026;48.562;14.440;2023-06-22T15:05:15;34.30;94.70
41592;DHT22;28026;48.562;14.440;2023-06-22T15:07:46;34.50;95.30
41592;DHT22;28026;48.562;14.440;2023-06-22T15:10:17;34.20;94.70
41592;DHT22;28026;48.562;14.440;2023-06-22T15:12:47;34.10;95.90
41592;DHT22;28026;48.562;14.440;2023-06-22T15:15:18;34.10;95.10
41592;DHT22;28026;48.562;14.440;2023-06-22T15:17:49;34.20;95.00
41592;DHT22;28026;48.562;14.440;2023-06-22T15:20:20;34.70;95.30
41592;DHT22;28026;48.562;14.440;2023-06-22T15:22:51;34.20;94.60
41592;DHT22;28026;48.562;14.440;2023-06-22T15:25:21;34.00;95.30
41592;DHT22;28026;48.562;14.440;2023-06-22T15:27:52;34.20;95.20
41592;DHT22;28026;48.562;14.440;2023-06-22T15:30:23;33.40;95.80
41592;DHT22;28026;48.562;14.440;2023-06-22T15:32:54;33.40;96.00
41592;DHT22;28026;48.562;14.440;2023-06-22T15:35:25;33.60;96.20
41592;DHT22;28026;48.562;14.440;2023-06-22T15:37:55;34.20;96.30
41592;DHT22;28026;48.562;14.440;2023-06-22T15:40:26;33.90;96.10
41592;DHT22;28026;48.562;14.440;2023-06-22T15:42:57;33.60;97.20
41592;DHT22;28026;48.562;14.440;2023-06-22T15:45:28;34.50;98.00
41592;DHT22;28026;48.562;14.440;2023-06-22T15:47:59;33.50;98.10